Time;durP1;ratioP1;P1;durP2;ratioP2;P2;SDS_P1;SDS_P2;PMS_P1;PMS_P2;Temp;Humidity;BMP_temperature;BMP_pressure;BME280_temperature;BME280_humidity;BME280_pressure;Samples;Min_cycle;Max_cycle;Signal;HPM_P1;HPM_P2
2022/07/24 00:03:27;;;;;;;;;;;;;;;21.71;100.00;100536.41;10587676;28;19923;-68
2022/07/24 00:08:33;;;;;;;;;;;;;;;21.68;100.00;100536.59;10587560;28;19937;-67
2022/07/24 00:13:36;;;;;;;;;;;;;;;21.70;100.00;100543.50;10590050;28;20359;-70
2022/07/24 00:18:39;;;;;;;;;;;;;;;21.64;100.00;100538.53;10592973;28;20244;-68
2022/07/24 00:23:43;;;;;;;;;;;;;;;21.66;100.00;100543.75;10593107;28;19924;-70
2022/07/24 00:28:48;;;;;;;;;;;;;;;21.66;100.00;100544.59;10588933;28;19938;-64
2022/07/24 00:33:51;;;;;;;;;;;;;;;21.64;100.00;100540.34;10586968;28;19924;-67
2022/07/24 00:38:55;;;;;;;;;;;;;;;21.64;100.00;100548.28;10586504;28;19928;-68
2022/07/24 00:43:59;;;;;;;;;;;;;;;21.57;100.00;100557.44;10258109;27;9999924;-69
2022/07/24 00:49:02;;;;;;;;;;;;;;;21.50;100.00;100553.41;10629163;27;19923;-67
2022/07/24 00:54:08;;;;;;;;;;;;;;;21.54;100.00;100557.59;10628476;27;19933;-70
2022/07/24 00:59:11;;;;;;;;;;;;;;;21.55;100.00;100560.16;10627694;27;19938;-67
2022/07/24 01:04:14;;;;;;;;;;;;;;;21.57;100.00;100574.13;10628399;27;19934;-70
2022/07/24 01:09:19;;;;;;;;;;;;;;;21.52;100.00;100567.38;10626397;27;19927;-68
2022/07/24 01:14:22;;;;;;;;;;;;;;;21.52;100.00;100567.38;10627229;27;19934;-63
2022/07/24 01:19:25;;;;;;;;;;;;;;;21.45;100.00;100561.56;10626755;27;20636;-65
2022/07/24 01:24:30;;;;;;;;;;;;;;;21.41;100.00;100561.81;10627324;27;19924;-66
2022/07/24 01:29:33;;;;;;;;;;;;;;;21.34;100.00;100577.13;10626438;27;19928;-70
2022/07/24 01:34:36;;;;;;;;;;;;;;;21.13;100.00;100582.59;10626893;27;19938;-65
2022/07/24 01:39:40;;;;;;;;;;;;;;;21.02;100.00;100590.22;10627284;27;19924;-65
2022/07/24 01:44:43;;;;;;;;;;;;;;;20.85;100.00;100593.63;10592428;27;20375;-63
2022/07/24 01:49:46;;;;;;;;;;;;;;;20.73;100.00;100596.00;10583034;28;19942;-63
2022/07/24 01:54:50;;;;;;;;;;;;;;;20.64;100.00;100595.50;10583616;28;19928;-62
2022/07/24 01:59:53;;;;;;;;;;;;;;;20.59;100.00;100584.31;10582520;28;19934;-64
2022/07/24 02:05:00;;;;;;;;;;;;;;;20.53;100.00;100579.34;10582572;28;19928;-71
2022/07/24 02:10:05;;;;;;;;;;;;;;;20.46;100.00;100591.13;10581830;28;19934;-65
2022/07/24 02:15:08;;;;;;;;;;;;;;;20.43;100.00;100593.03;10582711;28;19928;-70
2022/07/24 02:20:11;;;;;;;;;;;;;;;20.35;100.00;100597.78;10580699;28;19924;-69
2022/07/24 02:25:16;;;;;;;;;;;;;;;20.26;100.00;100601.72;10582136;28;19936;-66
2022/07/24 02:30:20;;;;;;;;;;;;;;;20.17;100.00;100596.84;10582609;28;19928;-67
2022/07/24 02:35:23;;;;;;;;;;;;;;;20.07;100.00;100597.31;10581239;28;19928;-68
2022/07/24 02:40:28;;;;;;;;;;;;;;;20.17;100.00;100599.47;10581008;28;19938;-72
2022/07/24 02:45:31;;;;;;;;;;;;;;;20.11;100.00;100589.19;10581456;28;20374;-71
2022/07/24 02:50:35;;;;;;;;;;;;;;;20.11;100.00;100588.34;10580735;28;20275;-69
2022/07/24 02:55:39;;;;;;;;;;;;;;;20.05;100.00;100597.38;10580757;28;19923;-68
2022/07/24 03:00:43;;;;;;;;;;;;;;;20.01;100.00;100598.44;10580973;28;20124;-67
2022/07/24 03:05:46;;;;;;;;;;;;;;;20.02;100.00;100589.59;10580314;28;20283;-70
2022/07/24 03:10:50;;;;;;;;;;;;;;;19.97;100.00;100602.13;10580449;28;20349;-70
2022/07/24 03:15:53;;;;;;;;;;;;;;;19.96;100.00;100613.63;10580157;28;19924;-66
2022/07/24 03:20:56;;;;;;;;;;;;;;;19.92;100.00;100614.66;10580220;28;19951;-70
2022/07/24 03:26:00;;;;;;;;;;;;;;;19.90;100.00;100621.78;10584660;28;20259;-68
2022/07/24 03:31:03;;;;;;;;;;;;;;;19.87;100.00;100627.19;10585098;28;19924;-66
2022/07/24 03:36:08;;;;;;;;;;;;;;;19.93;100.00;100631.34;10585386;28;19959;-64
2022/07/24 03:41:12;;;;;;;;;;;;;;;19.95;100.00;100626.88;10579445;28;19924;-68
2022/07/24 03:46:17;;;;;;;;;;;;;;;19.94;100.00;100633.91;10578373;28;20213;-65
2022/07/24 03:51:20;;;;;;;;;;;;;;;19.93;100.00;100641.88;10578838;28;19928;-65
2022/07/24 03:56:24;;;;;;;;;;;;;;;19.84;100.00;100640.50;10589005;28;19923;-67
2022/07/24 04:01:28;;;;;;;;;;;;;;;19.83;100.00;100644.03;10621198;28;19927;-69
2022/07/24 04:06:32;;;;;;;;;;;;;;;19.78;100.00;100638.13;10620868;28;19927;-69
2022/07/24 04:11:36;;;;;;;;;;;;;;;19.74;100.00;100651.50;10621991;28;19930;-67
2022/07/24 04:16:39;;;;;;;;;;;;;;;19.69;100.00;100643.78;10621515;28;19927;-65
2022/07/24 04:21:42;;;;;;;;;;;;;;;19.67;100.00;100648.28;10620834;28;20352;-66
2022/07/24 04:26:47;;;;;;;;;;;;;;;19.64;100.00;100651.00;10621299;28;19932;-66
2022/07/24 04:31:50;;;;;;;;;;;;;;;19.66;100.00;100659.72;10620890;28;19924;-66
2022/07/24 04:36:53;;;;;;;;;;;;;;;19.70;100.00;100653.41;10623034;28;19935;-67
2022/07/24 04:41:57;;;;;;;;;;;;;;;19.72;100.00;100662.09;10626406;27;19956;-72
2022/07/24 04:47:00;;;;;;;;;;;;;;;19.59;100.00;100653.00;10634298;27;19924;-69
2022/07/24 04:52:04;;;;;;;;;;;;;;;19.60;100.00;100665.25;10634345;27;19931;-68
2022/07/24 04:57:08;;;;;;;;;;;;;;;19.68;100.00;100671.06;10634247;27;19923;-68
2022/07/24 05:02:11;;;;;;;;;;;;;;;19.60;100.00;100672.28;10633635;27;20340;-68
2022/07/24 05:07:14;;;;;;;;;;;;;;;19.55;100.00;100668.06;10634004;27;19935;-69
2022/07/24 05:12:18;;;;;;;;;;;;;;;19.63;100.00;100674.78;10633470;27;20010;-66
2022/07/24 05:17:21;;;;;;;;;;;;;;;19.64;100.00;100685.25;10633228;27;19924;-68
2022/07/24 05:22:24;;;;;;;;;;;;;;;19.54;100.00;100676.03;10632902;27;20022;-67
2022/07/24 05:27:28;;;;;;;;;;;;;;;19.58;100.00;100687.28;10632604;27;19923;-68
2022/07/24 05:32:31;;;;;;;;;;;;;;;19.60;100.00;100678.44;10632854;27;19934;-69
2022/07/24 05:37:34;;;;;;;;;;;;;;;19.63;100.00;100683.56;10632433;27;19924;-69
2022/07/24 05:42:39;;;;;;;;;;;;;;;19.56;100.00;100682.09;10626498;27;20360;-70
2022/07/24 05:47:42;;;;;;;;;;;;;;;19.54;100.00;100676.91;10625778;27;19927;-67
2022/07/24 05:52:45;;;;;;;;;;;;;;;19.58;100.00;100682.91;10625641;27;20344;-68
2022/07/24 05:57:49;;;;;;;;;;;;;;;19.66;100.00;100698.34;10270323;27;9999982;-69
2022/07/24 06:02:52;;;;;;;;;;;;;;;19.73;100.00;100694.56;10583537;28;19927;-66
2022/07/24 06:07:55;;;;;;;;;;;;;;;19.79;100.00;100704.84;10582420;28;20241;-66
2022/07/24 06:13:00;;;;;;;;;;;;;;;19.71;98.03;100699.88;10583855;28;19934;-72
2022/07/24 06:18:03;;;;;;;;;;;;;;;19.69;98.53;100701.72;10582712;28;19928;-70
2022/07/24 06:23:06;;;;;;;;;;;;;;;19.74;97.61;100702.41;10581700;28;20407;-72
2022/07/24 06:28:10;;;;;;;;;;;;;;;19.78;96.37;100701.34;10581723;28;19924;-69
2022/07/24 06:33:13;;;;;;;;;;;;;;;19.80;94.97;100696.00;10582327;28;19934;-65
2022/07/24 06:38:17;;;;;;;;;;;;;;;19.85;94.97;100699.28;10581481;28;19939;-66
2022/07/24 06:43:21;;;;;;;;;;;;;;;19.85;94.38;100701.94;10580805;28;20245;-69
2022/07/24 06:48:24;;;;;;;;;;;;;;;19.89;94.01;100698.25;10581600;28;19927;-66
2022/07/24 06:53:27;;;;;;;;;;;;;;;19.84;93.15;100703.72;10580954;28;20303;-68
2022/07/24 06:58:32;;;;;;;;;;;;;;;19.81;92.29;100695.09;10589484;27;19949;-67
2022/07/24 07:03:35;;;;;;;;;;;;;;;19.89;91.24;100703.53;10623073;27;20076;-65
2022/07/24 07:08:38;;;;;;;;;;;;;;;19.98;91.86;100697.88;10622438;27;19928;-63
2022/07/24 07:13:42;;;;;;;;;;;;;;;20.08;90.79;100700.03;10622204;27;20397;-62
2022/07/24 07:18:45;;;;;;;;;;;;;;;20.00;90.65;100706.56;10622852;27;19933;-63
2022/07/24 07:23:48;;;;;;;;;;;;;;;20.05;88.96;100708.06;10623439;27;20377;-61
2022/07/24 07:28:53;;;;;;;;;;;;;;;20.03;87.76;100712.56;10622239;27;19928;-64
2022/07/24 07:33:57;;;;;;;;;;;;;;;20.10;88.50;100716.66;10621522;27;19968;-63
2022/07/24 07:39:00;;;;;;;;;;;;;;;20.23;88.25;100715.22;10622444;27;19924;-63
2022/07/24 07:44:05;;;;;;;;;;;;;;;20.28;87.20;100715.88;10622010;27;19927;-62
2022/07/24 07:49:09;;;;;;;;;;;;;;;20.21;87.83;100730.25;10621977;27;20325;-69
2022/07/24 07:54:12;;;;;;;;;;;;;;;20.34;87.01;100728.78;10622506;28;19927;-66
2022/07/24 07:59:17;;;;;;;;;;;;;;;20.63;86.03;100735.41;10619642;28;19938;-67
2022/07/24 08:04:20;;;;;;;;;;;;;;;20.48;84.32;100741.38;10580161;28;19938;-68
2022/07/24 08:09:23;;;;;;;;;;;;;;;20.42;84.16;100750.41;10579135;28;19934;-62
2022/07/24 08:14:28;;;;;;;;;;;;;;;20.67;84.61;100747.53;10578300;28;19928;-64
2022/07/24 08:19:30;;;;;;;;;;;;;;;21.01;83.31;100746.84;10583879;28;19954;-62
2022/07/24 08:24:33;;;;;;;;;;;;;;;21.15;83.13;100758.50;10587234;28;19928;-68
2022/07/24 08:29:38;;;;;;;;;;;;;;;21.07;81.45;100757.16;10586430;28;19923;-66
2022/07/24 08:34:41;;;;;;;;;;;;;;;21.14;82.64;100759.41;10585955;28;19935;-64
2022/07/24 08:39:44;;;;;;;;;;;;;;;21.32;83.23;100761.19;10586371;28;19966;-66
2022/07/24 08:44:48;;;;;;;;;;;;;;;21.31;83.69;100766.56;10586203;28;19923;-63
2022/07/24 08:49:53;;;;;;;;;;;;;;;21.18;82.70;100773.31;10585931;28;20299;-64
2022/07/24 08:54:57;;;;;;;;;;;;;;;21.14;83.98;100772.59;10585925;28;20014;-68
2022/07/24 09:00:01;;;;;;;;;;;;;;;21.28;83.25;100764.03;10593106;27;20014;-68
2022/07/24 09:05:04;;;;;;;;;;;;;;;21.39;84.44;100769.69;10627441;27;19928;-67
2022/07/24 09:10:08;;;;;;;;;;;;;;;21.47;84.68;100771.03;10627260;27;19927;-70
2022/07/24 09:15:14;;;;;;;;;;;;;;;21.62;84.05;100772.06;10628122;27;19924;-67
2022/07/24 09:20:17;;;;;;;;;;;;;;;21.74;83.05;100769.66;10626805;27;19989;-69
2022/07/24 09:25:21;;;;;;;;;;;;;;;21.77;84.17;100776.59;10626755;27;20245;-66
2022/07/24 09:30:26;;;;;;;;;;;;;;;21.76;83.72;100775.75;10626672;27;19924;-67
2022/07/24 09:35:31;;;;;;;;;;;;;;;21.77;83.50;100774.84;10626142;27;20031;-67
2022/07/24 09:40:36;;;;;;;;;;;;;;;22.03;82.83;100777.97;10625892;27;19929;-70
2022/07/24 09:45:52;;;;;;;;;;;;;;;22.00;82.28;100784.28;10627233;27;19931;-72
2022/07/24 09:50:56;;;;;;;;;;;;;;;21.99;81.36;100777.28;10626045;27;20332;-68
2022/07/24 09:56:01;;;;;;;;;;;;;;;22.04;82.09;100787.63;10625893;27;20264;-70
2022/07/24 10:01:06;;;;;;;;;;;;;;;22.06;82.77;100780.47;10609143;27;19924;-67
2022/07/24 10:06:10;;;;;;;;;;;;;;;21.78;83.92;100794.19;10583049;28;19927;-67
2022/07/24 10:11:14;;;;;;;;;;;;;;;21.87;84.35;100792.88;10582118;28;20364;-66
2022/07/24 10:16:26;;;;;;;;;;;;;;;21.95;83.87;100801.31;10582140;28;19923;-66
2022/07/24 10:21:31;;;;;;;;;;;;;;;22.28;83.95;100810.19;10582887;28;19923;-68
2022/07/24 10:26:35;;;;;;;;;;;;;;;22.28;85.23;100805.75;10581804;28;19924;-67
2022/07/24 10:31:40;;;;;;;;;;;;;;;22.31;85.73;100810.91;10581290;28;20226;-65
2022/07/24 10:36:49;;;;;;;;;;;;;;;22.29;84.94;100804.81;10582403;28;20370;-68
2022/07/24 10:42:02;;;;;;;;;;;;;;;22.35;85.86;100814.22;10580664;28;19924;-65
2022/07/24 10:47:08;;;;;;;;;;;;;;;22.49;84.71;100804.66;10580895;28;19924;-65
2022/07/24 10:52:12;;;;;;;;;;;;;;;22.56;82.79;100821.09;10580971;28;19942;-62
2022/07/24 10:57:15;;;;;;;;;;;;;;;23.00;81.55;100811.66;10580990;28;19934;-66
2022/07/24 11:02:27;;;;;;;;;;;;;;;23.31;80.66;100813.53;10607329;27;19931;-63
2022/07/24 11:07:30;;;;;;;;;;;;;;;23.34;80.56;100813.34;10622513;27;19927;-67
2022/07/24 11:12:34;;;;;;;;;;;;;;;23.06;82.84;100816.63;10623144;27;19939;-68
2022/07/24 11:17:44;;;;;;;;;;;;;;;22.95;83.43;100815.50;10622292;27;20344;-69
2022/07/24 11:22:48;;;;;;;;;;;;;;;23.33;81.99;100815.13;10622108;27;19923;-68
2022/07/24 11:27:57;;;;;;;;;;;;;;;23.44;81.94;100806.59;10623258;27;19924;-70
2022/07/24 11:33:01;;;;;;;;;;;;;;;23.69;80.82;100813.09;10621765;27;20717;-67
2022/07/24 11:38:05;;;;;;;;;;;;;;;23.50;81.32;100816.88;10604238;27;20512;-70
2022/07/24 11:43:10;;;;;;;;;;;;;;;23.24;82.37;100815.63;10621604;27;19924;-67
2022/07/24 11:48:20;;;;;;;;;;;;;;;23.63;80.63;100817.88;10622254;27;19927;-65
2022/07/24 11:53:31;;;;;;;;;;;;;;;23.70;79.70;100820.13;10621228;27;20024;-69
2022/07/24 11:58:38;;;;;;;;;;;;;;;24.06;77.59;100819.81;10621138;28;19934;-67
2022/07/24 12:03:49;;;;;;;;;;;;;;;24.13;77.16;100830.91;10583427;28;19927;-68
2022/07/24 12:08:56;;;;;;;;;;;;;;;23.61;78.87;100828.56;10579231;28;19939;-67
2022/07/24 12:13:59;;;;;;;;;;;;;;;23.16;80.79;100838.19;10578972;28;19945;-68
2022/07/24 12:19:14;;;;;;;;;;;;;;;23.31;80.03;100838.25;10579239;28;19924;-67
2022/07/24 12:24:18;;;;;;;;;;;;;;;23.53;79.43;100832.59;10578182;28;19953;-68
2022/07/24 12:29:21;;;;;;;;;;;;;;;23.49;78.75;100831.91;10578064;28;20391;-65
2022/07/24 12:34:40;;;;;;;;;;;;;;;23.33;79.07;100824.91;10577940;28;19930;-66
2022/07/24 12:40:03;;;;;;;;;;;;;;;23.16;79.91;100828.41;10578269;28;19934;-67
2022/07/24 12:45:08;;;;;;;;;;;;;;;23.25;79.61;100821.75;10577748;28;19924;-70
2022/07/24 12:50:15;;;;;;;;;;;;;;;22.89;81.69;100830.78;10577904;28;19939;-68
2022/07/24 12:55:38;;;;;;;;;;;;;;;22.66;83.13;100840.84;10578946;28;19924;-68
2022/07/24 13:00:56;;;;;;;;;;;;;;;22.81;83.37;100840.06;10577466;28;19932;-68
2022/07/24 13:06:01;;;;;;;;;;;;;;;22.95;82.85;100834.03;10587279;27;19998;-68
2022/07/24 13:11:04;;;;;;;;;;;;;;;22.66;83.95;100841.69;10627966;27;20247;-69
2022/07/24 13:16:07;;;;;;;;;;;;;;;22.57;84.26;100839.53;10629247;27;20249;-66
2022/07/24 13:21:11;;;;;;;;;;;;;;;22.85;83.57;100839.81;10633081;27;19924;-66
2022/07/24 13:26:14;;;;;;;;;;;;;;;24.55;76.82;100820.44;10630447;27;20533;-67
2022/07/24 13:31:19;;;;;;;;;;;;;;;25.43;73.09;100805.19;10627361;27;19924;-67
2022/07/24 13:36:24;;;;;;;;;;;;;;;26.43;69.78;100818.88;10626928;27;19937;-67
2022/07/24 13:41:28;;;;;;;;;;;;;;;26.93;67.89;100818.94;10626635;27;19987;-67
2022/07/24 13:46:32;;;;;;;;;;;;;;;27.06;66.85;100809.09;10627013;27;20423;-68
2022/07/24 13:51:37;;;;;;;;;;;;;;;27.27;65.74;100804.91;10625536;27;19932;-66
2022/07/24 13:56:40;;;;;;;;;;;;;;;27.25;65.42;100793.50;10625906;27;19928;-67
2022/07/24 14:01:43;;;;;;;;;;;;;;;27.36;63.75;100791.88;10626270;27;19927;-67
2022/07/24 14:06:47;;;;;;;;;;;;;;;27.11;62.53;100790.97;10625346;27;19931;-68
2022/07/24 14:11:50;;;;;;;;;;;;;;;27.25;61.45;100797.97;10600289;27;20283;-66
2022/07/24 14:16:55;;;;;;;;;;;;;;;26.71;60.93;100786.75;10582145;28;19931;-61
2022/07/24 14:21:59;;;;;;;;;;;;;;;26.52;61.68;100783.63;10583310;28;19928;-65
2022/07/24 14:27:02;;;;;;;;;;;;;;;26.47;61.25;100774.25;10581981;28;20255;-67
2022/07/24 14:32:05;;;;;;;;;;;;;;;26.51;60.25;100770.44;10581599;28;19934;-67
2022/07/24 14:37:10;;;;;;;;;;;;;;;26.40;59.65;100771.16;10582101;28;19988;-65
2022/07/24 14:42:20;;;;;;;;;;;;;;;26.07;59.83;100779.63;10580954;28;19934;-65
2022/07/24 14:47:23;;;;;;;;;;;;;;;25.50;61.46;100759.53;10581045;28;19938;-69
2022/07/24 14:52:27;;;;;;;;;;;;;;;25.73;62.24;100761.50;10581411;28;19928;-70
2022/07/24 14:57:32;;;;;;;;;;;;;;;25.83;62.60;100759.97;10580872;28;19927;-66
2022/07/24 15:02:35;;;;;;;;;;;;;;;25.40;62.85;100758.41;10580326;28;19928;-62
2022/07/24 15:07:39;;;;;;;;;;;;;;;25.59;63.56;100764.22;10581298;28;19934;-67
2022/07/24 15:12:42;;;;;;;;;;;;;;;25.63;63.27;100751.56;10612199;27;19938;-67
2022/07/24 15:17:45;;;;;;;;;;;;;;;25.45;64.43;100744.81;10621938;27;20378;-65
2022/07/24 15:22:49;;;;;;;;;;;;;;;25.42;63.24;100755.66;10622222;27;19927;-65
2022/07/24 15:27:52;;;;;;;;;;;;;;;25.18;62.96;100747.41;10622226;27;20312;-67
2022/07/24 15:32:55;;;;;;;;;;;;;;;25.15;63.21;100744.94;10622241;27;19923;-68
2022/07/24 15:38:00;;;;;;;;;;;;;;;25.24;62.95;100741.72;10621579;27;20267;-69
2022/07/24 15:43:06;;;;;;;;;;;;;;;25.20;63.23;100757.94;10622489;27;20639;-67
2022/07/24 15:48:12;;;;;;;;;;;;;;;25.14;62.98;100741.44;10611199;27;20264;-69
2022/07/24 15:53:17;;;;;;;;;;;;;;;25.06;63.27;100749.03;10579259;28;20340;-67
2022/07/24 15:58:20;;;;;;;;;;;;;;;24.78;63.44;100742.91;10579665;28;19942;-70
2022/07/24 16:03:23;;;;;;;;;;;;;;;24.65;64.82;100753.41;10579021;28;20014;-69
2022/07/24 16:08:28;;;;;;;;;;;;;;;24.66;64.74;100747.13;10578350;28;19927;-69
2022/07/24 16:13:31;;;;;;;;;;;;;;;24.48;63.95;100740.31;10578230;28;19936;-66
2022/07/24 16:18:35;;;;;;;;;;;;;;;24.30;64.68;100733.47;10584087;28;20256;-70
2022/07/24 16:23:40;;;;;;;;;;;;;;;24.16;66.04;100735.25;10583916;28;20388;-67
2022/07/24 16:28:42;;;;;;;;;;;;;;;24.13;66.42;100733.63;10578671;28;19934;-70
2022/07/24 16:33:46;;;;;;;;;;;;;;;24.07;66.82;100731.34;10578337;28;20616;-67
2022/07/24 16:38:50;;;;;;;;;;;;;;;24.07;67.18;100736.66;10579565;28;19927;-67
2022/07/24 16:43:53;;;;;;;;;;;;;;;23.85;67.30;100736.16;10586021;28;20000;-68
2022/07/24 16:48:56;;;;;;;;;;;;;;;23.83;67.55;100732.78;10586055;28;19927;-70
2022/07/24 16:54:01;;;;;;;;;;;;;;;23.74;68.36;100723.56;10585713;28;19938;-69
2022/07/24 16:59:05;;;;;;;;;;;;;;;23.67;68.45;100718.69;10585870;28;20408;-67
2022/07/24 17:04:09;;;;;;;;;;;;;;;23.55;68.90;100722.06;10585278;28;20360;-68
2022/07/24 17:09:16;;;;;;;;;;;;;;;23.47;68.78;100721.66;10585930;28;19984;-69
2022/07/24 17:14:20;;;;;;;;;;;;;;;23.34;69.16;100725.91;10584650;28;20004;-67
2022/07/24 17:19:24;;;;;;;;;;;;;;;23.24;69.60;100728.22;10625121;27;19927;-67
2022/07/24 17:24:29;;;;;;;;;;;;;;;23.25;70.41;100742.28;10627419;27;20591;-68
2022/07/24 17:29:32;;;;;;;;;;;;;;;23.19;70.99;100732.06;10627082;27;19927;-75
2022/07/24 17:34:35;;;;;;;;;;;;;;;23.20;71.20;100731.97;10608446;27;19931;-64
2022/07/24 17:39:39;;;;;;;;;;;;;;;23.07;71.51;100732.75;10625530;27;19933;-65
2022/07/24 17:44:42;;;;;;;;;;;;;;;23.01;71.77;100730.41;10627171;27;20239;-63
2022/07/24 17:49:45;;;;;;;;;;;;;;;22.92;72.44;100732.63;10625386;27;19932;-64
2022/07/24 17:54:49;;;;;;;;;;;;;;;22.90;72.68;100739.81;10626130;27;20093;-64
2022/07/24 17:59:52;;;;;;;;;;;;;;;22.81;72.99;100740.31;10626408;27;19923;-65
2022/07/24 18:04:56;;;;;;;;;;;;;;;22.80;73.65;100746.53;10625464;27;19931;-65
2022/07/24 18:10:00;;;;;;;;;;;;;;;22.77;73.86;100751.16;10616240;27;20345;-64
2022/07/24 18:15:04;;;;;;;;;;;;;;;22.70;74.51;100747.97;10582930;28;20344;-64
2022/07/24 18:20:08;;;;;;;;;;;;;;;22.64;75.43;100745.66;10582437;28;20191;-62
2022/07/24 18:25:17;;;;;;;;;;;;;;;22.55;75.81;100747.94;10582714;28;19932;-66
2022/07/24 18:30:27;;;;;;;;;;;;;;;22.45;77.03;100749.34;10582612;28;19924;-64
2022/07/24 18:35:30;;;;;;;;;;;;;;;22.43;77.26;100746.78;10581587;28;19938;-66
2022/07/24 18:40:35;;;;;;;;;;;;;;;22.37;77.66;100747.09;10580988;28;19930;-67
2022/07/24 18:45:37;;;;;;;;;;;;;;;22.27;78.13;100753.78;10581049;28;19928;-64
2022/07/24 18:50:41;;;;;;;;;;;;;;;22.26;78.49;100756.53;10581319;28;19934;-66
2022/07/24 18:55:45;;;;;;;;;;;;;;;22.16;80.24;100756.13;10580546;28;19953;-64
2022/07/24 19:00:48;;;;;;;;;;;;;;;22.09;80.47;100767.94;10579892;28;19942;-66
2022/07/24 19:05:51;;;;;;;;;;;;;;;22.06;80.80;100767.25;10581232;28;19924;-67
2022/07/24 19:10:55;;;;;;;;;;;;;;;21.92;82.83;100767.94;10597172;27;19927;-62
2022/07/24 19:15:58;;;;;;;;;;;;;;;21.77;84.92;100774.84;10622490;27;19927;-64
2022/07/24 19:21:01;;;;;;;;;;;;;;;21.83;84.25;100775.47;10623398;27;19933;-63
2022/07/24 19:26:06;;;;;;;;;;;;;;;21.83;84.09;100780.78;10622391;27;19929;-66
2022/07/24 19:31:09;;;;;;;;;;;;;;;21.81;84.18;100782.63;10622746;27;19934;-67
2022/07/24 19:36:12;;;;;;;;;;;;;;;21.74;84.92;100787.34;10622100;27;19927;-64
2022/07/24 19:41:17;;;;;;;;;;;;;;;21.68;85.06;100793.75;10622382;27;20085;-71
2022/07/24 19:46:20;;;;;;;;;;;;;;;21.56;87.59;100796.13;10621694;27;19931;-70
2022/07/24 19:51:23;;;;;;;;;;;;;;;21.53;88.14;100804.22;10621763;27;20348;-67
2022/07/24 19:56:47;;;;;;;;;;;;;;;21.49;88.89;100797.34;10622853;28;19928;-67
2022/07/24 20:01:50;;;;;;;;;;;;;;;21.22;91.74;100798.66;10621291;28;20316;-66
2022/07/24 20:06:53;;;;;;;;;;;;;;;21.25;91.59;100801.16;10621264;28;20457;-65
2022/07/24 20:11:57;;;;;;;;;;;;;;;21.08;93.18;100801.09;10596524;28;19938;-66
2022/07/24 20:17:00;;;;;;;;;;;;;;;21.03;94.45;100803.09;10587240;28;20578;-71
2022/07/24 20:22:04;;;;;;;;;;;;;;;21.08;94.36;100809.88;10586836;28;19923;-65
2022/07/24 20:27:09;;;;;;;;;;;;;;;20.99;94.94;100807.66;10587103;28;19923;-71
2022/07/24 20:32:12;;;;;;;;;;;;;;;21.01;98.29;100816.34;10586687;28;19923;-69
2022/07/24 20:37:15;;;;;;;;;;;;;;;21.10;98.23;100815.06;10586958;28;20014;-71
2022/07/24 20:42:19;;;;;;;;;;;;;;;21.16;97.24;100817.41;10586829;28;20290;-68
2022/07/24 20:47:22;;;;;;;;;;;;;;;21.11;97.95;100815.00;10586415;28;19927;-68
2022/07/24 20:52:28;;;;;;;;;;;;;;;21.03;98.51;100819.78;10585679;28;19938;-67
2022/07/24 20:57:33;;;;;;;;;;;;;;;21.00;99.30;100822.53;10585949;28;20528;-65
2022/07/24 21:02:36;;;;;;;;;;;;;;;20.94;99.32;100819.28;10586041;28;19930;-67
2022/07/24 21:07:39;;;;;;;;;;;;;;;20.92;99.43;100829.94;10585485;28;19950;-66
2022/07/24 21:12:45;;;;;;;;;;;;;;;20.87;100.00;100826.63;10616619;27;19923;-69
2022/07/24 21:17:50;;;;;;;;;;;;;;;20.94;99.22;100827.22;10628341;27;19927;-69
2022/07/24 21:22:53;;;;;;;;;;;;;;;20.95;97.67;100828.94;10628356;27;19927;-70
2022/07/24 21:28:00;;;;;;;;;;;;;;;20.96;97.02;100826.22;10626235;27;19995;-67
2022/07/24 21:33:03;;;;;;;;;;;;;;;20.90;97.87;100830.94;10627893;27;19927;-65
2022/07/24 21:38:06;;;;;;;;;;;;;;;20.78;99.07;100831.47;10626441;27;19927;-65
2022/07/24 21:43:15;;;;;;;;;;;;;;;20.82;99.38;100835.69;10626263;27;20058;-63
2022/07/24 21:48:18;;;;;;;;;;;;;;;20.76;99.37;100828.06;10626902;27;19941;-68
2022/07/24 21:53:21;;;;;;;;;;;;;;;20.65;99.01;100837.31;10625918;27;19934;-68
2022/07/24 21:58:25;;;;;;;;;;;;;;;20.44;100.00;100840.84;10625602;27;19937;-69
2022/07/24 22:03:28;;;;;;;;;;;;;;;20.45;100.00;100834.66;10626215;27;19958;-68
2022/07/24 22:08:31;;;;;;;;;;;;;;;20.48;100.00;100845.06;10625987;27;19927;-69
2022/07/24 22:13:36;;;;;;;;;;;;;;;20.39;100.00;100845.47;10585934;27;19938;-70
2022/07/24 22:18:39;;;;;;;;;;;;;;;20.27;100.00;100847.75;10582577;28;19934;-68
2022/07/24 22:23:42;;;;;;;;;;;;;;;20.32;100.00;100848.44;10583025;28;19934;-70
2022/07/24 22:28:46;;;;;;;;;;;;;;;20.21;100.00;100854.13;10582105;28;19923;-68
2022/07/24 22:33:52;;;;;;;;;;;;;;;20.27;100.00;100859.19;10581657;28;19923;-68
2022/07/24 22:38:56;;;;;;;;;;;;;;;20.28;100.00;100849.47;10582043;28;19924;-66
2022/07/24 22:44:06;;;;;;;;;;;;;;;20.12;100.00;100861.56;10581319;28;20237;-68
2022/07/24 22:49:09;;;;;;;;;;;;;;;20.04;100.00;100856.59;10581424;28;19928;-68
2022/07/24 22:54:19;;;;;;;;;;;;;;;20.04;100.00;100861.84;10581913;28;19927;-66
2022/07/24 22:59:28;;;;;;;;;;;;;;;20.09;100.00;100861.66;10582801;28;20245;-70
2022/07/24 23:04:31;;;;;;;;;;;;;;;20.21;100.00;100853.28;10586647;28;19924;-71
2022/07/24 23:09:34;;;;;;;;;;;;;;;20.17;100.00;100851.72;10586602;28;19959;-70
2022/07/24 23:14:39;;;;;;;;;;;;;;;20.17;100.00;100847.28;10586401;28;19924;-68
2022/07/24 23:19:42;;;;;;;;;;;;;;;20.11;100.00;100844.88;10586644;28;19924;-67
2022/07/24 23:24:45;;;;;;;;;;;;;;;20.04;100.00;100845.19;10585925;28;19931;-71
2022/07/24 23:29:49;;;;;;;;;;;;;;;20.02;100.00;100836.50;10585937;28;19934;-68
2022/07/24 23:34:53;;;;;;;;;;;;;;;19.96;100.00;100847.28;10585590;28;20349;-68
2022/07/24 23:39:56;;;;;;;;;;;;;;;19.94;100.00;100842.06;10585531;28;19924;-66
2022/07/24 23:45:03;;;;;;;;;;;;;;;19.91;100.00;100851.88;10585296;28;20316;-66
2022/07/24 23:50:07;;;;;;;;;;;;;;;19.86;100.00;100846.81;10584740;28;19924;-66
2022/07/24 23:55:11;;;;;;;;;;;;;;;19.74;100.00;100857.84;10585062;28;19942;-67
